PWSweather.com
Personal Weather Stations
Station Observations
EPTALOFOS
Ampelokipi, ThessalonikiGR 56123

AmpelokipiThessalonikiGR 56123

Lat: 40.6541816, Lon: 22.92589780000003

Elevation: 137

Station Type: Fine Offset WH-3080-Solar

http://www.dmark.gr

Latest ConditionsUpdated 10:30:01 PM GMT+02:02 Sunday, Jan 19, 2020
Currently Today's Max Today's Min Today's Average
Temperature 42.8°F6.0°C 51.4°F10.8°C 42.6°F5.9°C 45.2°F7.3°C
Dew Point 24.4°F-4.2°C 30.7°F-0.7°C 23.7°F-4.6°C 26.6°F-3.0°C
Winds 5.4 mph NNE8.7 kmh NNE 7.9 mph -12.7 kmh - - 4.3 mph 6.9 kmh
Wind Gusts 5.4 mph8.7 kmh 10.7 mph17.2 kmh - -
Humidity 48% 56% 35% 48%
Pressure 30.42 in1030.1 mb 30.42 in1030.1 mb 30.21 in1023.0 mb -
Hour Temp Dew Point Humidity Winds Wind Gusts Pressure Precip Precip Rate Daily Precip Total
10:30 PM 42.8°F6.0°C 24.4°F-4.2°C 48% 5.4 mph NNE8.7 kmh NNE 5.4 mph8.7 kmh 30.42 in1030.1 mb 0.00 in0.0 mm 0.00 in0.0 mm 0.00 in0.0 mm
10:00 PM 42.6°F5.9°C 24.8°F-4.0°C 49% 5.3 mph NE8.5 kmh NE 6.0 mph9.7 kmh 30.41 in1029.8 mb 0.00 in0.0 mm 0.00 in0.0 mm 0.00 in0.0 mm
09:30 PM 42.8°F6.0°C 25.4°F-3.7°C 50% 5.3 mph ENE8.5 kmh ENE 6.0 mph9.7 kmh 30.40 in1029.5 mb 0.00 in0.0 mm 0.00 in0.0 mm 0.00 in0.0 mm
09:00 PM 44.4°F6.9°C 26.9°F-2.8°C 50% 7.3 mph NNE11.7 kmh NNE 9.2 mph14.8 kmh 30.38 in1028.8 mb 0.00 in0.0 mm 0.00 in0.0 mm 0.00 in0.0 mm
08:30 PM 45.1°F7.3°C 29.0°F-1.7°C 53% 4.3 mph NNE6.9 kmh NNE 5.4 mph8.7 kmh 30.37 in1028.4 mb 0.00 in0.0 mm 0.00 in0.0 mm 0.00 in0.0 mm
08:00 PM 45.3°F7.4°C 30.1°F-1.1°C 55% 5.7 mph NE9.2 kmh NE 6.0 mph9.7 kmh 30.35 in1027.8 mb 0.00 in0.0 mm 0.00 in0.0 mm 0.00 in0.0 mm
07:30 PM 45.5°F7.5°C 30.7°F-0.7°C 56% 3.5 mph NE5.6 kmh NE 3.8 mph6.1 kmh 30.34 in1027.4 mb 0.00 in0.0 mm 0.00 in0.0 mm 0.00 in0.0 mm
07:00 PM 45.7°F7.6°C 30.4°F-0.9°C 55% 4.5 mph N7.2 kmh N 4.5 mph7.2 kmh 30.33 in1027.1 mb 0.00 in0.0 mm 0.00 in0.0 mm 0.00 in0.0 mm
06:30 PM 45.9°F7.7°C 30.1°F-1.1°C 54% 2.6 mph N4.2 kmh N 4.5 mph7.2 kmh 30.30 in1026.1 mb 0.00 in0.0 mm 0.00 in0.0 mm 0.00 in0.0 mm
06:00 PM 46.2°F7.9°C 30.5°F-0.8°C 54% 3.8 mph ENE6.1 kmh ENE 4.5 mph7.2 kmh 30.29 in1025.7 mb 0.00 in0.0 mm 0.00 in0.0 mm 0.00 in0.0 mm
05:30 PM 46.6°F8.1°C 28.9°F-1.7°C 50% 3.8 mph SSE6.1 kmh SSE 3.8 mph6.1 kmh 30.27 in1025.1 mb 0.00 in0.0 mm 0.00 in0.0 mm 0.00 in0.0 mm
05:00 PM 46.9°F8.3°C 28.3°F-2.1°C 48% 4.5 mph NE7.2 kmh NE 4.5 mph7.2 kmh 30.26 in1024.7 mb 0.00 in0.0 mm 0.00 in0.0 mm 0.00 in0.0 mm
04:30 PM 47.5°F8.6°C 27.7°F-2.4°C 46% 3.8 mph NE6.1 kmh NE 5.4 mph8.7 kmh 30.25 in1024.4 mb 0.00 in0.0 mm 0.00 in0.0 mm 0.00 in0.0 mm
04:00 PM 48.7°F9.3°C 26.1°F-3.3°C 41% 5.0 mph NNE8.0 kmh NNE 6.9 mph11.1 kmh 30.25 in1024.4 mb 0.00 in0.0 mm 0.00 in0.0 mm 0.00 in0.0 mm
03:30 PM 48.4°F9.1°C 26.9°F-2.8°C 43% 4.6 mph E7.4 kmh E 6.0 mph9.7 kmh 30.25 in1024.4 mb 0.00 in0.0 mm 0.00 in0.0 mm 0.00 in0.0 mm
03:00 PM 48.6°F9.2°C 25.9°F-3.4°C 41% 4.9 mph NE7.9 kmh NE 5.4 mph8.7 kmh 30.24 in1024.0 mb 0.00 in0.0 mm 0.00 in0.0 mm 0.00 in0.0 mm
02:30 PM 49.6°F9.8°C 23.7°F-4.6°C 36% 5.0 mph N8.0 kmh N 6.9 mph11.1 kmh 30.23 in1023.7 mb 0.00 in0.0 mm 0.00 in0.0 mm 0.00 in0.0 mm
01:30 PM 48.9°F9.4°C 25.0°F-3.9°C 39% 1.9 mph NE3.1 kmh NE 2.2 mph3.5 kmh 30.23 in1023.7 mb 0.00 in0.0 mm 0.00 in0.0 mm 0.00 in0.0 mm
01:00 PM 49.5°F9.7°C 24.2°F-4.3°C 37% 4.6 mph NE7.4 kmh NE 5.4 mph8.7 kmh 30.23 in1023.7 mb 0.00 in0.0 mm 0.00 in0.0 mm 0.00 in0.0 mm
12:30 PM 49.3°F9.6°C 24.7°F-4.1°C 38% 4.5 mph N7.2 kmh N 4.5 mph7.2 kmh 30.24 in1024.0 mb 0.00 in0.0 mm 0.00 in0.0 mm 0.00 in0.0 mm
12:00 PM 51.4°F10.8°C 24.7°F-4.1°C 35% 2.2 mph NE3.5 kmh NE 3.8 mph6.1 kmh 30.24 in1024.0 mb 0.00 in0.0 mm 0.00 in0.0 mm 0.00 in0.0 mm
11:30 AM 43.5°F6.4°C 26.6°F-3.0°C 51% Calm Calm -- 30.23 in1023.7 mb 0.00 in0.0 mm 0.00 in0.0 mm 0.00 in0.0 mm
11:00 AM 43.5°F6.4°C 26.6°F-3.0°C 51% 2.2 mph NE3.5 kmh NE 2.2 mph3.5 kmh 30.23 in1023.7 mb 0.00 in0.0 mm 0.00 in0.0 mm 0.00 in0.0 mm
10:30 AM 43.5°F6.4°C 26.6°F-3.0°C 51% 2.2 mph NE3.5 kmh NE 2.2 mph3.5 kmh 30.23 in1023.7 mb 0.00 in0.0 mm 0.00 in0.0 mm 0.00 in0.0 mm
10:00 AM 43.5°F6.4°C 26.6°F-3.0°C 51% 2.2 mph NE3.5 kmh NE 2.2 mph3.5 kmh 30.23 in1023.7 mb 0.00 in0.0 mm 0.00 in0.0 mm 0.00 in0.0 mm
09:30 AM 43.5°F6.4°C 26.6°F-3.0°C 51% 2.2 mph NE3.5 kmh NE 2.2 mph3.5 kmh 30.23 in1023.7 mb 0.00 in0.0 mm 0.00 in0.0 mm 0.00 in0.0 mm
09:00 AM 43.5°F6.4°C 26.6°F-3.0°C 51% 2.2 mph NE3.5 kmh NE 2.2 mph3.5 kmh 30.23 in1023.7 mb 0.00 in0.0 mm 0.00 in0.0 mm 0.00 in0.0 mm
08:30 AM 43.5°F6.4°C 26.6°F-3.0°C 51% 2.2 mph NE3.5 kmh NE 2.2 mph3.5 kmh 30.23 in1023.7 mb 0.00 in0.0 mm 0.00 in0.0 mm 0.00 in0.0 mm
08:00 AM 43.5°F6.4°C 26.6°F-3.0°C 51% 2.3 mph N3.7 kmh N 3.1 mph5.0 kmh 30.23 in1023.7 mb 0.00 in0.0 mm 0.00 in0.0 mm 0.00 in0.0 mm
07:30 AM 43.5°F6.4°C 26.1°F-3.3°C 50% 3.0 mph NW4.8 kmh NW 4.5 mph7.2 kmh 30.23 in1023.7 mb 0.00 in0.0 mm 0.00 in0.0 mm 0.00 in0.0 mm
07:00 AM 43.9°F6.6°C 25.4°F-3.7°C 48% 3.1 mph N5.0 kmh N 3.1 mph5.0 kmh 30.22 in1023.4 mb 0.00 in0.0 mm 0.00 in0.0 mm 0.00 in0.0 mm
06:30 AM 43.9°F6.6°C 25.4°F-3.7°C 48% 0.3 mph N0.5 kmh N 0.7 mph1.1 kmh 30.22 in1023.4 mb 0.00 in0.0 mm 0.00 in0.0 mm 0.00 in0.0 mm
06:00 AM 44.2°F6.8°C 24.7°F-4.1°C 46% 5.4 mph SE8.7 kmh SE 5.4 mph8.7 kmh 30.21 in1023.0 mb 0.00 in0.0 mm 0.00 in0.0 mm 0.00 in0.0 mm
05:30 AM 44.1°F6.7°C 24.6°F-4.1°C 46% 6.3 mph E10.1 kmh E 6.9 mph11.1 kmh 30.21 in1023.0 mb 0.00 in0.0 mm 0.00 in0.0 mm 0.00 in0.0 mm
05:00 AM 44.1°F6.7°C 25.1°F-3.8°C 47% 6.9 mph ESE11.1 kmh ESE 6.9 mph11.1 kmh 30.21 in1023.0 mb 0.00 in0.0 mm 0.00 in0.0 mm 0.00 in0.0 mm
04:30 AM 44.1°F6.7°C 25.1°F-3.8°C 47% 6.9 mph E11.1 kmh E 6.9 mph11.1 kmh 30.21 in1023.0 mb 0.00 in0.0 mm 0.00 in0.0 mm 0.00 in0.0 mm
04:00 AM 44.2°F6.8°C 24.7°F-4.1°C 46% 5.0 mph SE8.0 kmh SE 6.0 mph9.7 kmh 30.22 in1023.4 mb 0.00 in0.0 mm 0.00 in0.0 mm 0.00 in0.0 mm
03:30 AM 44.2°F6.8°C 25.3°F-3.7°C 47% 6.0 mph SE9.7 kmh SE 6.0 mph9.7 kmh 30.23 in1023.7 mb 0.00 in0.0 mm 0.00 in0.0 mm 0.00 in0.0 mm
03:00 AM 44.4°F6.9°C 25.9°F-3.4°C 48% 6.5 mph NE10.5 kmh NE 7.6 mph12.2 kmh 30.24 in1024.0 mb 0.00 in0.0 mm 0.00 in0.0 mm 0.00 in0.0 mm
02:30 AM 44.2°F6.8°C 26.8°F-2.9°C 50% 7.6 mph E12.2 kmh E 10.7 mph17.2 kmh 30.24 in1024.0 mb 0.00 in0.0 mm 0.00 in0.0 mm 0.00 in0.0 mm
02:00 AM 44.1°F6.7°C 27.1°F-2.7°C 51% 6.5 mph E10.5 kmh E 7.6 mph12.2 kmh 30.23 in1023.7 mb 0.00 in0.0 mm 0.00 in0.0 mm 0.00 in0.0 mm
01:30 AM 44.2°F6.8°C 27.2°F-2.7°C 51% 7.9 mph SE12.7 kmh SE 8.3 mph13.4 kmh 30.24 in1024.0 mb 0.00 in0.0 mm 0.00 in0.0 mm 0.00 in0.0 mm
01:00 AM 44.4°F6.9°C 26.9°F-2.8°C 50% 6.1 mph E9.8 kmh E 7.6 mph12.2 kmh 30.24 in1024.0 mb 0.00 in0.0 mm 0.00 in0.0 mm 0.00 in0.0 mm
12:30 AM 44.4°F6.9°C 26.9°F-2.8°C 50% 4.5 mph ESE7.2 kmh ESE 4.5 mph7.2 kmh 30.25 in1024.4 mb 0.00 in0.0 mm 0.00 in0.0 mm 0.00 in0.0 mm
12:00 AM 44.6°F7.0°C 26.6°F-3.0°C 49% 4.9 mph E7.9 kmh E 6.0 mph9.7 kmh 30.25 in1024.4 mb 0.00 in0.0 mm 0.00 in0.0 mm 0.00 in0.0 mm